Time;durP1;ratioP1;P1;durP2;ratioP2;P2;SDS_P1;SDS_P2;PMS_P1;PMS_P2;Temp;Humidity;BMP_temperature;BMP_pressure;BME280_temperature;BME280_humidity;BME280_pressure;Samples;Min_cycle;Max_cycle;Signal;HPM_P1;HPM_P2
2023/09/11 00:00:41;;;;;;;;;;;;;;;24.22;52.56;101671.81;5043966;28;20390;-82
2023/09/11 00:03:06;;;;;;;;;;;;;;;24.23;52.91;101680.72;5040602;28;19928;-81
2023/09/11 00:05:32;;;;;;;;;;;;;;;24.20;52.79;101675.34;5038746;28;19921;-81
2023/09/11 00:07:57;;;;;;;;;;;;;;;24.20;52.96;101678.91;5026547;28;19947;-81
2023/09/11 00:10:23;;;;;;;;;;;;;;;24.18;52.74;101664.63;5023237;28;20394;-81
2023/09/11 00:12:48;;;;;;;;;;;;;;;24.15;52.79;101672.59;5016082;28;20353;-82
2023/09/11 00:15:14;;;;;;;;;;;;;;;24.14;52.80;101669.03;5007138;28;19968;-82
2023/09/11 00:17:39;;;;;;;;;;;;;;;24.16;52.70;101667.28;5039771;28;19921;-81
2023/09/11 00:20:10;;;;;;;;;;;;;;;24.18;52.82;101677.97;5047177;28;19921;-81
2023/09/11 00:22:36;;;;;;;;;;;;;;;24.15;52.93;101669.91;5040121;28;19924;-82
2023/09/11 00:25:02;;;;;;;;;;;;;;;24.14;52.97;101669.03;5028128;28;19917;-80
2023/09/11 00:27:27;;;;;;;;;;;;;;;24.16;52.94;101664.63;5050733;28;19913;-81
2023/09/11 00:29:53;;;;;;;;;;;;;;;24.10;53.19;101664.53;5030914;28;20434;-83
2023/09/11 00:32:18;;;;;;;;;;;;;;;24.11;52.83;101665.44;5020695;28;20404;-81
2023/09/11 00:34:43;;;;;;;;;;;;;;;24.14;53.15;101662.81;5036390;28;19917;-82
2023/09/11 00:37:09;;;;;;;;;;;;;;;24.09;52.92;101675.22;5045302;28;19925;-81
2023/09/11 00:39:34;;;;;;;;;;;;;;;24.04;53.03;101656.44;5037396;28;20368;-82
2023/09/11 00:42:00;;;;;;;;;;;;;;;24.02;52.79;101660.88;5047350;28;19956;-81
2023/09/11 00:44:25;;;;;;;;;;;;;;;24.03;53.01;101657.34;5036993;28;20401;-80
2023/09/11 00:46:50;;;;;;;;;;;;;;;24.05;52.87;101655.59;5048904;28;20282;-82
2023/09/11 00:49:17;;;;;;;;;;;;;;;24.06;52.96;101664.47;5052968;28;19940;-82
2023/09/11 00:51:42;;;;;;;;;;;;;;;23.99;53.00;101652.84;5021048;28;19917;-81
2023/09/11 00:54:08;;;;;;;;;;;;;;;23.99;53.01;101650.16;5023254;28;19924;-80
2023/09/11 00:56:33;;;;;;;;;;;;;;;24.02;53.00;101658.19;5036292;28;20384;-81
2023/09/11 00:58:59;;;;;;;;;;;;;;;23.97;52.82;101655.47;5039411;28;19924;-83
2023/09/11 01:01:24;;;;;;;;;;;;;;;23.99;53.06;101652.84;5019048;28;20382;-83
2023/09/11 01:03:49;;;;;;;;;;;;;;;23.98;53.27;101651.94;5019376;28;19918;-82
2023/09/11 01:06:15;;;;;;;;;;;;;;;23.94;53.10;101657.22;5048660;28;20003;-82
2023/09/11 01:08:40;;;;;;;;;;;;;;;23.94;53.06;101646.56;5036538;28;19921;-82
2023/09/11 01:11:06;;;;;;;;;;;;;;;23.88;53.09;101647.38;5040167;28;19917;-81
2023/09/11 01:13:31;;;;;;;;;;;;;;;23.93;53.12;101656.31;5024860;28;19913;-82
2023/09/11 01:16:06;;;;;;;;;;;;;;;23.92;53.09;101656.31;5047301;28;19945;-81
2023/09/11 01:18:50;;;;;;;;;;;;;;;23.95;53.12;101648.34;5040380;28;19928;-81
2023/09/11 01:21:34;;;;;;;;;;;;;;;23.91;53.24;101644.72;5050601;28;19917;-84
2023/09/11 01:23:59;;;;;;;;;;;;;;;23.91;53.00;101647.38;5047644;28;19917;-82
2023/09/11 01:26:31;;;;;;;;;;;;;;;23.89;53.15;101650.91;5050936;28;19979;-82
2023/09/11 01:29:04;;;;;;;;;;;;;;;23.87;53.12;101642.88;5048323;28;20361;-81
2023/09/11 01:31:30;;;;;;;;;;;;;;;23.85;53.11;101638.41;5034449;28;20402;-82
2023/09/11 01:37:04;;;;;;;;;;;;;;;23.86;53.06;101642.88;5007055;28;19921;-82
2023/09/11 01:39:29;;;;;;;;;;;;;;;23.85;53.23;101639.31;5022418;28;20435;-83
2023/09/11 01:41:58;;;;;;;;;;;;;;;23.86;53.07;101641.13;5031958;28;19978;-84
2023/09/11 01:44:30;;;;;;;;;;;;;;;23.85;53.01;101633.06;5033044;28;19917;-84
2023/09/11 01:46:59;;;;;;;;;;;;;;;23.83;53.09;101630.38;5033715;28;19928;-83
2023/09/11 01:49:24;;;;;;;;;;;;;;;23.80;53.21;101638.34;5034626;28;19959;-84
2023/09/11 01:51:51;;;;;;;;;;;;;;;23.82;53.06;101641.94;5034797;28;19913;-82
2023/09/11 01:54:16;;;;;;;;;;;;;;;23.81;53.02;101641.91;5023837;28;20377;-82
2023/09/11 01:56:42;;;;;;;;;;;;;;;23.83;53.10;101638.38;5029938;28;19923;-83
2023/09/11 01:59:07;;;;;;;;;;;;;;;23.82;53.36;101633.94;5040675;28;19917;-83
2023/09/11 02:01:32;;;;;;;;;;;;;;;23.77;53.39;101639.22;5026733;28;19917;-83
2023/09/11 02:03:58;;;;;;;;;;;;;;;23.78;53.35;101627.66;5030505;28;19920;-82
2023/09/11 02:06:23;;;;;;;;;;;;;;;23.77;53.28;101635.66;5036230;28;20523;-82
2023/09/11 02:08:49;;;;;;;;;;;;;;;23.80;53.24;101637.47;5020913;28;19913;-83
2023/09/11 02:11:14;;;;;;;;;;;;;;;23.74;53.26;101628.47;5017676;28;20394;-82
2023/09/11 02:13:41;;;;;;;;;;;;;;;23.72;53.38;101632.88;5029331;28;20399;-81
2023/09/11 02:16:06;;;;;;;;;;;;;;;23.72;53.26;101638.22;5038018;28;19975;-82
2023/09/11 02:18:31;;;;;;;;;;;;;;;23.76;53.36;101628.53;5031659;28;19917;-82
2023/09/11 02:20:57;;;;;;;;;;;;;;;23.73;53.31;101628.47;5027339;28;20414;-81
2023/09/11 02:23:22;;;;;;;;;;;;;;;23.72;53.31;101629.31;5017225;28;19978;-83
2023/09/11 02:25:48;;;;;;;;;;;;;;;23.72;53.35;101630.22;5026466;28;20004;-82
2023/09/11 02:28:14;;;;;;;;;;;;;;;23.74;53.28;101622.25;5017817;28;19917;-82
2023/09/11 02:30:39;;;;;;;;;;;;;;;23.71;53.22;101630.22;5018078;28;19920;-81
2023/09/11 02:33:05;;;;;;;;;;;;;;;23.70;53.24;101629.28;5016157;28;19922;-81
2023/09/11 02:35:31;;;;;;;;;;;;;;;23.68;53.26;101625.69;5031993;28;20428;-81
2023/09/11 02:37:57;;;;;;;;;;;;;;;23.65;53.40;101623.00;5035718;28;19922;-83
2023/09/11 02:40:22;;;;;;;;;;;;;;;23.66;53.27;101627.44;5022194;28;19913;-82
2023/09/11 02:42:48;;;;;;;;;;;;;;;23.62;53.57;101630.97;5026481;28;20457;-82
2023/09/11 02:45:13;;;;;;;;;;;;;;;23.65;53.40;101619.47;5021264;28;20628;-82
2023/09/11 02:47:38;;;;;;;;;;;;;;;23.63;53.27;101626.53;5035237;28;20378;-82
2023/09/11 02:50:04;;;;;;;;;;;;;;;23.62;53.40;101627.41;5034960;28;19932;-81
2023/09/11 02:52:29;;;;;;;;;;;;;;;23.62;53.34;101619.41;5035355;28;20373;-80
2023/09/11 02:54:55;;;;;;;;;;;;;;;23.61;53.17;101621.16;5035284;28;19928;-80
2023/09/11 02:57:20;;;;;;;;;;;;;;;23.58;53.43;101622.03;5034770;28;19964;-82
2023/09/11 02:59:46;;;;;;;;;;;;;;;23.57;53.37;101617.56;5034759;28;19917;-82
2023/09/11 03:02:11;;;;;;;;;;;;;;;23.60;53.31;101622.06;5022866;28;19945;-82
2023/09/11 03:04:36;;;;;;;;;;;;;;;23.57;53.41;101619.34;5024923;28;19920;-81
2023/09/11 03:07:02;;;;;;;;;;;;;;;23.55;53.37;101618.41;5064500;28;19920;-80
2023/09/11 03:09:27;;;;;;;;;;;;;;;23.62;53.26;101611.41;5039377;28;19913;-80
2023/09/11 03:11:53;;;;;;;;;;;;;;;23.55;53.43;101621.09;5045109;28;20297;-81
2023/09/11 03:14:18;;;;;;;;;;;;;;;23.58;53.27;101618.47;5051832;28;19916;-81
2023/09/11 03:16:43;;;;;;;;;;;;;;;23.54;53.41;101616.63;5046497;28;20306;-81
2023/09/11 03:19:09;;;;;;;;;;;;;;;23.50;53.54;101621.03;5029053;28;19921;-82
2023/09/11 03:21:35;;;;;;;;;;;;;;;23.53;53.21;101626.38;5045681;28;19920;-82
2023/09/11 03:24:00;;;;;;;;;;;;;;;23.52;53.34;101629.06;5045260;28;19931;-82
2023/09/11 03:26:27;;;;;;;;;;;;;;;23.52;53.41;101621.94;5054432;28;20347;-82
2023/09/11 03:28:53;;;;;;;;;;;;;;;23.49;53.45;101624.53;5040648;28;20454;-82
2023/09/11 03:31:19;;;;;;;;;;;;;;;23.49;53.16;101629.88;5037264;28;19913;-83
2023/09/11 03:33:45;;;;;;;;;;;;;;;23.47;53.28;101622.75;5045429;28;19924;-82
2023/09/11 03:36:17;;;;;;;;;;;;;;;23.47;53.44;101625.41;5054763;28;19912;-82
2023/09/11 03:38:42;;;;;;;;;;;;;;;23.48;53.20;101627.22;5053801;28;19921;-82
2023/09/11 03:41:08;;;;;;;;;;;;;;;23.44;53.24;101620.94;5045590;28;19913;-81
2023/09/11 03:43:33;;;;;;;;;;;;;;;23.45;53.45;101628.06;5049948;28;20404;-82
2023/09/11 03:45:58;;;;;;;;;;;;;;;23.43;53.41;101629.81;5053157;28;20420;-82
2023/09/11 03:48:24;;;;;;;;;;;;;;;23.41;53.37;101638.63;5050218;28;20410;-82
2023/09/11 03:50:49;;;;;;;;;;;;;;;23.45;53.37;101640.47;5036077;28;20328;-82
2023/09/11 03:53:15;;;;;;;;;;;;;;;23.41;53.47;101638.63;5047748;28;19924;-83
2023/09/11 03:55:42;;;;;;;;;;;;;;;23.37;53.45;101635.94;5042548;28;20485;-83
2023/09/11 03:58:08;;;;;;;;;;;;;;;23.39;53.58;101641.31;5046874;28;19956;-83
2023/09/11 04:00:33;;;;;;;;;;;;;;;23.35;53.56;101640.34;5034438;28;20393;-84
2023/09/11 04:02:59;;;;;;;;;;;;;;;23.38;53.57;101647.50;5044445;28;20367;-83
2023/09/11 04:05:25;;;;;;;;;;;;;;;23.33;53.60;101643.88;5052782;28;20453;-83
2023/09/11 04:07:50;;;;;;;;;;;;;;;23.36;53.62;101639.47;5040776;28;20290;-82
2023/09/11 04:10:16;;;;;;;;;;;;;;;23.37;53.49;101643.06;5025794;28;20409;-84
2023/09/11 04:12:42;;;;;;;;;;;;;;;23.35;53.63;101647.47;5035817;28;19956;-85
2023/09/11 04:15:08;;;;;;;;;;;;;;;23.34;53.60;101658.97;5046733;28;20313;-85
2023/09/11 04:17:33;;;;;;;;;;;;;;;23.35;53.61;101645.69;5035341;28;19920;-83
2023/09/11 04:19:59;;;;;;;;;;;;;;;23.32;53.46;101650.94;5050007;28;20455;-83
2023/09/11 04:22:24;;;;;;;;;;;;;;;23.31;53.64;101656.28;5038031;28;20401;-85
2023/09/11 04:24:50;;;;;;;;;;;;;;;23.34;53.31;101650.97;5051557;28;20321;-83
2023/09/11 04:27:15;;;;;;;;;;;;;;;23.32;53.58;101655.38;5050142;28;20494;-83
2023/09/11 04:29:42;;;;;;;;;;;;;;;23.32;53.36;101652.72;5046975;28;19917;-84
2023/09/11 04:32:07;;;;;;;;;;;;;;;23.32;53.59;101658.06;5051270;28;19917;-83
2023/09/11 04:34:32;;;;;;;;;;;;;;;23.34;53.41;101649.22;5050859;28;19931;-84
2023/09/11 04:36:58;;;;;;;;;;;;;;;23.29;53.50;101652.69;5053964;28;20459;-83
2023/09/11 04:39:23;;;;;;;;;;;;;;;23.28;53.40;101657.13;5045225;28;20382;-83
2023/09/11 04:41:49;;;;;;;;;;;;;;;23.22;53.66;101651.72;5033235;28;20287;-83
2023/09/11 04:44:14;;;;;;;;;;;;;;;23.26;53.55;101653.56;5031919;28;20018;-82
2023/09/11 04:46:39;;;;;;;;;;;;;;;23.28;53.53;101657.13;5040746;28;19939;-82
2023/09/11 04:49:05;;;;;;;;;;;;;;;23.28;53.52;101656.22;5047188;28;20400;-82
2023/09/11 04:51:31;;;;;;;;;;;;;;;23.27;53.60;101658.00;5051448;28;20336;-83
2023/09/11 04:53:56;;;;;;;;;;;;;;;23.26;53.76;101657.97;5046142;28;20386;-86
2023/09/11 04:56:21;;;;;;;;;;;;;;;23.25;53.62;101657.06;5051427;28;19923;-84
2023/09/11 04:58:47;;;;;;;;;;;;;;;23.26;53.69;101660.63;5046516;28;19921;-84
2023/09/11 05:01:13;;;;;;;;;;;;;;;23.27;53.69;101657.09;5048531;28;20404;-84
2023/09/11 05:03:39;;;;;;;;;;;;;;;23.26;53.59;101658.88;5050505;28;19967;-85
2023/09/11 05:06:04;;;;;;;;;;;;;;;23.21;53.64;101649.91;5057999;28;19960;-83
2023/09/11 05:08:30;;;;;;;;;;;;;;;23.26;53.48;101652.63;5038163;28;19973;-84
2023/09/11 05:10:55;;;;;;;;;;;;;;;23.17;53.65;101662.25;5049244;28;19971;-81
2023/09/11 05:13:21;;;;;;;;;;;;;;;23.14;53.78;101656.00;5046695;28;19917;-82
2023/09/11 05:15:48;;;;;;;;;;;;;;;23.08;53.84;101654.13;5044059;28;20278;-83
2023/09/11 05:18:14;;;;;;;;;;;;;;;23.09;53.77;101645.28;5049088;28;20436;-82
2023/09/11 05:20:40;;;;;;;;;;;;;;;23.12;53.82;101647.97;5049103;28;19917;-83
2023/09/11 05:23:05;;;;;;;;;;;;;;;23.13;53.69;101652.44;5044644;28;20325;-84
2023/09/11 05:25:31;;;;;;;;;;;;;;;23.14;53.61;101643.56;5050390;28;20016;-84
2023/09/11 05:27:56;;;;;;;;;;;;;;;23.18;53.56;101652.53;5034502;28;19916;-88
2023/09/11 05:30:21;;;;;;;;;;;;;;;23.09;53.75;101655.00;5051901;28;19923;-84
2023/09/11 05:32:51;;;;;;;;;;;;;;;23.12;53.73;101655.97;5031592;28;20378;-85
2023/09/11 05:35:17;;;;;;;;;;;;;;;23.16;53.63;101656.94;5034453;28;20011;-84
2023/09/11 05:37:42;;;;;;;;;;;;;;;23.22;53.45;101656.13;5051032;28;20378;-85
2023/09/11 05:40:08;;;;;;;;;;;;;;;23.21;53.59;101657.00;5050398;28;20473;-85
2023/09/11 05:42:33;;;;;;;;;;;;;;;23.18;53.56;101657.84;5044511;28;19921;-83
2023/09/11 05:44:59;;;;;;;;;;;;;;;23.22;53.42;101657.03;5056786;28;20381;-84
2023/09/11 05:47:24;;;;;;;;;;;;;;;23.21;53.48;101657.88;5038268;28;19966;-84
2023/09/11 05:49:53;;;;;;;;;;;;;;;23.22;53.71;101658.78;5038443;28;20371;-89
2023/09/11 05:52:18;;;;;;;;;;;;;;;23.15;53.70;101657.78;5033196;28;19919;-86
2023/09/11 05:54:50;;;;;;;;;;;;;;;23.17;53.70;101664.03;5051310;28;20011;-87
2023/09/11 05:57:18;;;;;;;;;;;;;;;23.20;53.61;101663.19;5028702;28;20004;-87
2023/09/11 05:59:43;;;;;;;;;;;;;;;23.22;53.83;101673.03;5043101;28;20000;-86
2023/09/11 06:02:09;;;;;;;;;;;;;;;23.19;53.74;101667.63;5045608;28;19913;-88
2023/09/11 06:04:34;;;;;;;;;;;;;;;23.21;53.74;101670.31;5027566;28;20408;-88
2023/09/11 06:07:00;;;;;;;;;;;;;;;23.13;53.98;101665.75;5033602;28;19920;-89
2023/09/11 06:09:25;;;;;;;;;;;;;;;23.07;54.12;101679.00;5023350;28;20369;-85
2023/09/11 06:11:52;;;;;;;;;;;;;;;23.15;53.97;101679.09;5050717;28;20330;-88
2023/09/11 06:14:17;;;;;;;;;;;;;;;23.17;53.96;101680.91;5032773;28;20381;-85
2023/09/11 06:16:43;;;;;;;;;;;;;;;23.14;53.99;101683.53;5015911;28;19920;-86
2023/09/11 06:19:08;;;;;;;;;;;;;;;23.18;53.98;101681.84;5051510;28;20344;-84
2023/09/11 06:21:34;;;;;;;;;;;;;;;23.16;54.02;101683.56;5045386;28;19916;-87
2023/09/11 06:23:59;;;;;;;;;;;;;;;23.14;54.12;101688.88;5028751;28;20401;-85
2023/09/11 06:26:24;;;;;;;;;;;;;;;23.11;54.25;101680.84;5042354;28;20321;-85
2023/09/11 06:28:50;;;;;;;;;;;;;;;23.12;54.19;101693.28;5026234;28;19917;-85
2023/09/11 06:31:16;;;;;;;;;;;;;;;23.12;54.25;101687.06;5046245;28;20397;-85
2023/09/11 06:33:43;;;;;;;;;;;;;;;23.09;54.46;101700.31;5049798;28;19917;-86
2023/09/11 06:36:09;;;;;;;;;;;;;;;23.14;54.29;101690.66;5048218;28;19931;-86
2023/09/11 06:38:34;;;;;;;;;;;;;;;23.14;54.34;101695.97;5045018;28;19921;-86
2023/09/11 06:41:00;;;;;;;;;;;;;;;23.12;54.47;101701.28;5044343;28;19917;-86
2023/09/11 06:43:26;;;;;;;;;;;;;;;23.14;54.36;101703.97;5044154;28;20015;-86
2023/09/11 06:45:52;;;;;;;;;;;;;;;23.13;54.37;101707.50;5046992;28;19971;-86
2023/09/11 06:48:18;;;;;;;;;;;;;;;23.17;54.29;101704.91;5031500;28;19916;-85
2023/09/11 06:50:43;;;;;;;;;;;;;;;23.20;54.29;101703.16;5053184;28;19916;-85
2023/09/11 06:53:09;;;;;;;;;;;;;;;23.14;54.32;101703.97;5049231;28;20295;-85
2023/09/11 06:55:34;;;;;;;;;;;;;;;23.12;54.56;101705.72;5034091;28;20000;-85
2023/09/11 06:58:00;;;;;;;;;;;;;;;23.16;54.33;101703.13;5032238;28;20420;-86
2023/09/11 07:00:26;;;;;;;;;;;;;;;23.20;54.34;101708.50;5048063;28;19928;-85
2023/09/11 07:02:52;;;;;;;;;;;;;;;23.05;54.68;101698.47;5015800;28;19924;-84
2023/09/11 07:05:18;;;;;;;;;;;;;;;23.13;54.48;101707.50;5050526;28;19920;-86
2023/09/11 07:07:43;;;;;;;;;;;;;;;23.02;54.73;101712.63;5047215;28;19993;-85
2023/09/11 07:10:14;;;;;;;;;;;;;;;22.99;54.81;101717.88;5039190;28;20496;-84
2023/09/11 07:12:40;;;;;;;;;;;;;;;22.96;54.86;101717.81;5031860;28;19920;-85
2023/09/11 07:15:06;;;;;;;;;;;;;;;22.89;55.07;101716.81;5025100;28;20512;-85
2023/09/11 07:17:31;;;;;;;;;;;;;;;22.96;54.91;101717.81;5031412;28;19940;-86
2023/09/11 07:19:57;;;;;;;;;;;;;;;22.89;55.08;101714.16;5049410;28;19917;-86
2023/09/11 07:22:22;;;;;;;;;;;;;;;22.91;55.07;101708.84;5053179;28;19998;-87
2023/09/11 07:24:48;;;;;;;;;;;;;;;22.95;54.96;101708.94;5032051;28;19923;-84
2023/09/11 07:27:13;;;;;;;;;;;;;;;22.94;55.00;101709.81;5044199;28;19923;-85
2023/09/11 07:29:40;;;;;;;;;;;;;;;22.96;54.94;101721.41;5044962;28;19953;-83
2023/09/11 07:32:05;;;;;;;;;;;;;;;23.04;54.69;101718.00;5049286;28;19917;-83
2023/09/11 07:34:31;;;;;;;;;;;;;;;22.91;54.95;101719.50;5030327;28;19917;-83
2023/09/11 07:36:57;;;;;;;;;;;;;;;22.93;54.91;101718.66;5034124;28;20393;-84
2023/09/11 07:39:22;;;;;;;;;;;;;;;22.94;54.95;101716.88;5052845;28;20034;-85
2023/09/11 07:41:49;;;;;;;;;;;;;;;23.03;54.67;101716.19;5034075;28;19940;-83
2023/09/11 07:44:14;;;;;;;;;;;;;;;22.98;54.76;101716.97;5050051;28;19971;-85
2023/09/11 07:46:39;;;;;;;;;;;;;;;22.96;54.86;101712.47;5052356;28;19944;-85
2023/09/11 07:49:05;;;;;;;;;;;;;;;22.87;55.11;101721.22;5051198;28;20520;-85
2023/09/11 07:51:30;;;;;;;;;;;;;;;22.86;54.99;101707.84;5033806;28;20404;-84
2023/09/11 07:53:56;;;;;;;;;;;;;;;22.87;55.01;101718.53;5034043;28;19978;-83
2023/09/11 07:56:22;;;;;;;;;;;;;;;22.86;55.00;101716.78;5053012;28;19966;-85
2023/09/11 07:58:50;;;;;;;;;;;;;;;22.85;55.15;101720.28;5035240;28;19929;-86
2023/09/11 08:01:16;;;;;;;;;;;;;;;22.86;55.07;101724.75;5034124;28;19953;-84
2023/09/11 08:03:41;;;;;;;;;;;;;;;22.90;54.97;101723.94;5027934;28;19917;-84
2023/09/11 08:06:07;;;;;;;;;;;;;;;22.91;54.97;101714.19;5038733;28;19944;-84
2023/09/11 08:08:33;;;;;;;;;;;;;;;22.90;55.06;101710.63;5013076;28;19980;-84
2023/09/11 08:10:58;;;;;;;;;;;;;;;22.85;55.16;101709.63;5032041;28;20432;-84
2023/09/11 08:13:24;;;;;;;;;;;;;;;22.93;55.04;101717.78;5037425;28;20496;-85
2023/09/11 08:15:55;;;;;;;;;;;;;;;23.08;54.66;101706.53;5018246;28;20353;-87
2023/09/11 08:18:21;;;;;;;;;;;;;;;23.18;54.38;101705.81;5008954;28;19921;-85
2023/09/11 08:20:54;;;;;;;;;;;;;;;23.10;54.48;101711.00;5029004;28;20102;-87
2023/09/11 08:23:21;;;;;;;;;;;;;;;23.15;54.48;101706.63;5016901;28;19920;-85
2023/09/11 08:25:47;;;;;;;;;;;;;;;23.10;54.63;101710.13;5032624;28;19988;-85
2023/09/11 08:28:12;;;;;;;;;;;;;;;23.14;54.36;101709.31;5032397;28;20374;-85
2023/09/11 08:30:37;;;;;;;;;;;;;;;23.05;54.53;101709.13;5019509;28;19935;-84
2023/09/11 08:33:03;;;;;;;;;;;;;;;23.08;54.59;101706.53;5030250;28;19964;-84
2023/09/11 08:35:28;;;;;;;;;;;;;;;23.05;54.54;101695.78;5033180;28;20375;-85
2023/09/11 08:37:54;;;;;;;;;;;;;;;23.03;54.62;101701.13;5032087;28;19975;-84
2023/09/11 08:40:20;;;;;;;;;;;;;;;23.09;54.65;101693.25;5030479;28;20386;-84
2023/09/11 08:42:45;;;;;;;;;;;;;;;23.13;54.62;101696.84;5033530;28;19913;-83
2023/09/11 08:45:11;;;;;;;;;;;;;;;23.07;54.79;101702.97;5033305;28;19988;-84
2023/09/11 08:47:37;;;;;;;;;;;;;;;23.07;54.83;101702.06;5029810;28;19975;-86
2023/09/11 08:50:04;;;;;;;;;;;;;;;23.05;54.70;101696.72;5000196;28;20013;-85
2023/09/11 08:52:39;;;;;;;;;;;;;;;23.05;54.88;101688.72;5007417;28;19920;-85
2023/09/11 08:55:06;;;;;;;;;;;;;;;23.06;54.90;101701.16;5010344;28;20058;-85
2023/09/11 08:57:33;;;;;;;;;;;;;;;23.02;54.84;101698.41;5033897;28;20188;-87
2023/09/11 09:00:04;;;;;;;;;;;;;;;23.07;54.81;101692.31;5032577;28;19913;-85
2023/09/11 09:02:29;;;;;;;;;;;;;;;23.04;55.03;101696.69;5003948;28;19913;-85
2023/09/11 09:04:55;;;;;;;;;;;;;;;22.92;55.25;101692.91;5014942;28;19921;-84
2023/09/11 09:07:21;;;;;;;;;;;;;;;23.07;54.98;101692.31;5016885;28;20390;-86
2023/09/11 09:09:46;;;;;;;;;;;;;;;23.06;54.84;101690.50;5013299;28;19917;-87
2023/09/11 09:12:12;;;;;;;;;;;;;;;23.04;55.08;101683.38;5016833;28;19917;-86
2023/09/11 09:14:38;;;;;;;;;;;;;;;23.09;54.85;101693.25;5027332;28;20456;-85
2023/09/11 09:17:03;;;;;;;;;;;;;;;23.01;55.04;101680.63;5028864;28;19928;-85
2023/09/11 09:19:29;;;;;;;;;;;;;;;23.07;55.11;101678.06;5015962;28;20400;-85
2023/09/11 09:22:06;;;;;;;;;;;;;;;23.06;55.09;101673.63;5028958;28;19917;-86
2023/09/11 09:24:36;;;;;;;;;;;;;;;22.99;55.03;101669.94;5018700;28;19999;-87
2023/09/11 09:27:02;;;;;;;;;;;;;;;23.04;55.30;101672.72;5017635;28;19917;-88
2023/09/11 09:29:35;;;;;;;;;;;;;;;23.03;55.21;101673.56;5008577;28;19920;-84
2023/09/11 09:32:02;;;;;;;;;;;;;;;23.04;55.39;101678.03;5027459;28;20363;-88
2023/09/11 09:34:27;;;;;;;;;;;;;;;23.04;55.38;101670.03;5029679;28;19913;-86
2023/09/11 09:36:54;;;;;;;;;;;;;;;23.09;55.24;101671.00;5012117;28;19913;-86
2023/09/11 09:39:20;;;;;;;;;;;;;;;23.17;54.93;101672.91;5027111;28;19921;-85
2023/09/11 09:41:55;;;;;;;;;;;;;;;23.07;55.30;101673.66;5008250;28;19975;-86
2023/09/11 09:44:28;;;;;;;;;;;;;;;23.15;55.07;101664.00;5015349;28;19957;-85
2023/09/11 09:46:53;;;;;;;;;;;;;;;23.14;55.08;101669.34;5028297;28;19917;-84
2023/09/11 09:49:20;;;;;;;;;;;;;;;23.11;54.89;101667.53;5013071;28;19988;-85
2023/09/11 09:51:47;;;;;;;;;;;;;;;23.12;55.02;101669.28;5024724;28;19921;-84
2023/09/11 09:54:12;;;;;;;;;;;;;;;23.09;55.11;101666.59;5011644;28;19917;-84
2023/09/11 09:56:39;;;;;;;;;;;;;;;23.11;55.40;101669.25;4994371;28;19920;-84
2023/09/11 09:59:04;;;;;;;;;;;;;;;23.11;55.34;101664.84;5030217;28;19921;-88
2023/09/11 10:01:29;;;;;;;;;;;;;;;23.05;55.61;101661.16;5013238;28;19920;-86
2023/09/11 10:03:55;;;;;;;;;;;;;;;23.01;55.44;101662.91;5008595;28;20479;-85
2023/09/11 10:06:27;;;;;;;;;;;;;;;23.05;55.35;101656.75;5027972;28;19978;-85
2023/09/11 10:09:13;;;;;;;;;;;;;;;23.10;55.35;101656.81;5033433;28;20329;-86
2023/09/11 10:11:40;;;;;;;;;;;;;;;23.17;55.17;101661.38;5043736;28;19935;-84
2023/09/11 10:14:06;;;;;;;;;;;;;;;23.15;55.20;101656.00;5034995;28;19916;-86
2023/09/11 10:16:32;;;;;;;;;;;;;;;23.19;55.22;101654.31;5030639;28;19916;-84
2023/09/11 10:18:58;;;;;;;;;;;;;;;23.16;54.99;101659.59;5051219;28;19943;-85
2023/09/11 10:21:24;;;;;;;;;;;;;;;23.14;55.30;101656.91;5033474;28;19928;-87
2023/09/11 10:23:50;;;;;;;;;;;;;;;23.22;54.98;101653.44;5030453;28;19917;-83
2023/09/11 10:26:23;;;;;;;;;;;;;;;23.21;55.12;101654.34;5025158;28;20303;-86
2023/09/11 10:28:48;;;;;;;;;;;;;;;23.24;55.02;101649.03;5021963;28;19917;-86
2023/09/11 10:31:21;;;;;;;;;;;;;;;23.23;54.93;101657.94;5039128;28;20300;-87
2023/09/11 10:33:57;;;;;;;;;;;;;;;23.21;54.98;101644.56;5016898;28;19923;-85
2023/09/11 10:36:23;;;;;;;;;;;;;;;23.23;55.01;101648.16;5033474;28;19912;-85
2023/09/11 10:38:48;;;;;;;;;;;;;;;23.20;55.24;101648.13;5016139;28;19921;-84
2023/09/11 10:41:14;;;;;;;;;;;;;;;23.20;55.19;101648.13;5047697;28;19917;-84
2023/09/11 10:43:39;;;;;;;;;;;;;;;23.24;55.12;101646.38;5038396;28;19921;-86
2023/09/11 10:46:18;;;;;;;;;;;;;;;23.23;55.11;101647.25;5028751;28;19948;-85
2023/09/11 10:48:43;;;;;;;;;;;;;;;23.25;55.08;101643.75;5025994;28;20393;-86
2023/09/11 10:51:09;;;;;;;;;;;;;;;23.21;54.96;101641.00;5027782;28;19917;-86
2023/09/11 10:53:34;;;;;;;;;;;;;;;23.27;54.96;101638.44;5044500;28;19917;-86
2023/09/11 10:56:00;;;;;;;;;;;;;;;23.24;55.12;101641.97;5021168;28;20373;-84
2023/09/11 10:58:26;;;;;;;;;;;;;;;23.17;55.27;101646.28;5036928;28;19917;-84
2023/09/11 11:00:55;;;;;;;;;;;;;;;23.14;55.45;101646.25;5017991;28;19920;-84
2023/09/11 11:03:23;;;;;;;;;;;;;;;23.18;55.25;101641.88;5035663;28;19917;-86
2023/09/11 11:05:49;;;;;;;;;;;;;;;23.23;55.15;101639.28;5040498;28;19921;-84
2023/09/11 11:08:14;;;;;;;;;;;;;;;23.19;55.35;101635.66;5028716;28;19924;-84
2023/09/11 11:10:40;;;;;;;;;;;;;;;23.24;55.00;101643.72;5038104;28;19917;-84
2023/09/11 11:13:09;;;;;;;;;;;;;;;23.28;55.07;101633.16;5022318;28;19917;-83
2023/09/11 11:15:35;;;;;;;;;;;;;;;23.30;55.01;101628.72;5033270;28;19923;-84
2023/09/11 11:18:05;;;;;;;;;;;;;;;23.19;55.36;101624.09;5037954;28;20017;-85
2023/09/11 11:20:30;;;;;;;;;;;;;;;23.13;55.63;101628.44;5036010;28;19955;-85
2023/09/11 11:22:57;;;;;;;;;;;;;;;23.16;55.40;101630.28;5054357;28;20013;-85
2023/09/11 11:25:22;;;;;;;;;;;;;;;23.12;55.53;101625.78;5035952;28;20011;-83
2023/09/11 11:27:47;;;;;;;;;;;;;;;23.14;55.65;101621.38;5051684;28;20416;-84
2023/09/11 11:30:13;;;;;;;;;;;;;;;23.14;55.42;101622.25;5033309;28;20487;-85
2023/09/11 11:32:39;;;;;;;;;;;;;;;23.15;55.42;101625.81;5038168;28;20016;-85
2023/09/11 11:35:07;;;;;;;;;;;;;;;23.23;55.36;101615.28;5037642;28;19992;-84
2023/09/11 11:37:36;;;;;;;;;;;;;;;23.46;54.52;101618.31;5035306;28;19913;-86
2023/09/11 11:40:01;;;;;;;;;;;;;;;23.41;54.61;101620.91;5055612;28;19920;-84
2023/09/11 11:42:27;;;;;;;;;;;;;;;23.42;54.77;101619.13;5039657;28;19912;-85
2023/09/11 11:44:52;;;;;;;;;;;;;;;23.48;54.69;101619.22;5038672;28;19917;-85
2023/09/11 11:47:19;;;;;;;;;;;;;;;23.55;54.54;101616.63;5052798;28;19917;-84
2023/09/11 11:49:46;;;;;;;;;;;;;;;23.55;54.56;101618.41;5053626;28;20336;-84
2023/09/11 11:52:12;;;;;;;;;;;;;;;23.42;54.72;101613.78;5054142;28;19913;-86
2023/09/11 11:54:37;;;;;;;;;;;;;;;23.37;54.82;101613.72;5034432;28;20432;-85
2023/09/11 11:57:03;;;;;;;;;;;;;;;23.36;54.89;101615.47;5044952;28;19917;-85
2023/09/11 11:59:51;;;;;;;;;;;;;;;23.37;54.83;101605.75;5038790;28;20000;-85
2023/09/11 12:02:26;;;;;;;;;;;;;;;23.40;54.82;101604.88;5051384;28;19924;-84
2023/09/11 12:04:53;;;;;;;;;;;;;;;23.44;54.88;101602.28;5045169;28;20008;-83
2023/09/11 12:07:19;;;;;;;;;;;;;;;23.45;54.80;101604.09;5045578;28;19917;-85
2023/09/11 12:09:44;;;;;;;;;;;;;;;23.47;54.67;101594.31;5035595;28;19917;-82
2023/09/11 12:12:09;;;;;;;;;;;;;;;23.54;54.68;101598.88;5055945;28;20374;-82
2023/09/11 12:14:36;;;;;;;;;;;;;;;23.61;54.67;101597.19;5037903;28;20313;-82
2023/09/11 12:17:01;;;;;;;;;;;;;;;23.57;54.79;101604.22;5023450;28;20428;-82
2023/09/11 12:19:30;;;;;;;;;;;;;;;23.53;54.94;101594.41;5030244;28;19925;-82
2023/09/11 12:21:56;;;;;;;;;;;;;;;23.51;54.93;101592.59;5034090;28;20589;-83
2023/09/11 12:24:21;;;;;;;;;;;;;;;23.42;55.28;101593.34;5044704;28;19920;-82
2023/09/11 12:26:47;;;;;;;;;;;;;;;23.47;55.19;101593.41;5035305;28;19925;-83
2023/09/11 12:29:15;;;;;;;;;;;;;;;23.47;55.39;101588.97;5048837;28;20489;-84
2023/09/11 12:31:41;;;;;;;;;;;;;;;23.64;54.73;101588.31;5026769;28;20042;-83
2023/09/11 12:34:06;;;;;;;;;;;;;;;23.60;54.92;101590.06;5046295;28;20398;-85